Epic Borneo — 9V2986 — position and weather

sailwx.info

Track history (hours):
 
Tides and Currents Weather Stations Pressure Air Temp Water Temp Dewpoint Dewpoint Depression Visibility Wind Speed Wind Dir Waves Ship Positions

Epic Borneo

Last reported at 2018-Jun-16 05:46 UTC. Time now 2018-Jun-23 04:44 UTC.
Position N 35°43' W 007°06'.

Length 117 m; draft 6.5 m.

Type: Tanker. MMSI: 565179000.

Date/timePositionNaut miles runAvg speedWind from/ knotsBaromVisibWave heightAir tempDewpointWater temp
2018-Jun-16 05:46N 35°43' W 007°06'313.6
2018-Jun-16 05:30N 35°46' W 007°05'713.5
2018-Jun-16 04:59N 35°53' W 007°03'713.7
2018-Jun-16 04:30N 35°60' W 007°02'713.2
2018-Jun-16 04:00N 36°06' W 006°59'713.5
2018-Jun-16 03:30N 36°12' W 006°57'713.7
2018-Jun-16 03:00N 36°19' W 006°56'1414.1
2018-Jun-16 02:01N 36°33' W 006°53'114.2
2018-Jun-16 01:55N 36°34' W 006°52'813.9
2018-Jun-16 01:18N 36°43' W 006°51'813.4
2018-Jun-16 00:43N 36°51' W 006°51'313.1
2018-Jun-16 00:30N 36°53' W 006°50'712.9
2018-Jun-15 23:58N 37°00' W 006°50'511.5
2018-Jun-15 23:30N 37°06' W 006°49'  
Track history (hours):
 
Tides and Currents Weather Stations Pressure Air Temp Water Temp Dewpoint Dewpoint Depression Visibility Wind Speed Wind Dir Waves Ship Positions

Epic Borneo

Last reported at 2018-Jun-16 05:46 UTC. Time now 2018-Jun-23 04:44 UTC.
Position N 35°43' W 007°06'.

Length 117 m; draft 6.5 m.

Type: Tanker. MMSI: 565179000.

Date/timePositionNaut miles runAvg speedWind from/ knotsBaromVisibWave heightAir tempDewpointWater temp
2018-Jun-16 05:46N 35°43' W 007°06'313.6
2018-Jun-16 05:30N 35°46' W 007°05'713.5
2018-Jun-16 04:59N 35°53' W 007°03'713.7
2018-Jun-16 04:30N 35°60' W 007°02'713.2
2018-Jun-16 04:00N 36°06' W 006°59'713.5
2018-Jun-16 03:30N 36°12' W 006°57'713.7
2018-Jun-16 03:00N 36°19' W 006°56'1414.1
2018-Jun-16 02:01N 36°33' W 006°53'114.2
2018-Jun-16 01:55N 36°34' W 006°52'813.9
2018-Jun-16 01:18N 36°43' W 006°51'813.4
2018-Jun-16 00:43N 36°51' W 006°51'313.1
2018-Jun-16 00:30N 36°53' W 006°50'712.9
2018-Jun-15 23:58N 37°00' W 006°50'511.5
2018-Jun-15 23:30N 37°06' W 006°49'  

Dump ship's entire track history